createdAt,value
2018-09-18T00:00:25.998Z,0.00
2018-09-18T00:01:25.969Z,0.00
2018-09-18T00:02:25.954Z,0.00
2018-09-18T00:03:25.941Z,0.00
2018-09-18T00:04:25.916Z,0.00
2018-09-18T00:05:25.902Z,0.00
2018-09-18T00:06:25.883Z,0.00
2018-09-18T00:07:25.871Z,0.00
2018-09-18T00:08:25.841Z,0.00
2018-09-18T00:09:25.831Z,0.00
2018-09-18T00:10:25.819Z,0.00
2018-09-18T00:11:25.792Z,0.00
2018-09-18T00:12:25.771Z,0.00
2018-09-18T00:13:25.745Z,0.00
2018-09-18T00:14:25.733Z,0.00
2018-09-18T00:15:25.710Z,0.00
2018-09-18T00:16:25.687Z,0.00
2018-09-18T00:17:25.671Z,0.00
2018-09-18T00:18:25.652Z,0.00
2018-09-18T00:19:25.633Z,0.00
2018-09-18T00:20:25.620Z,0.00
2018-09-18T00:21:25.595Z,0.00
2018-09-18T00:22:25.589Z,0.00
2018-09-18T00:23:25.563Z,0.00
2018-09-18T00:24:25.544Z,0.00
2018-09-18T00:25:25.521Z,0.00
2018-09-18T00:26:25.499Z,0.00
2018-09-18T00:27:25.480Z,0.00
2018-09-18T00:28:25.476Z,0.00
2018-09-18T00:29:25.446Z,0.00
2018-09-18T00:30:25.431Z,0.00
2018-09-18T00:31:25.409Z,0.00
2018-09-18T00:32:25.392Z,0.00
2018-09-18T00:33:25.373Z,0.00
2018-09-18T00:34:25.354Z,0.00
2018-09-18T00:35:25.347Z,0.00
2018-09-18T00:36:25.319Z,0.00
2018-09-18T00:37:25.293Z,0.00
2018-09-18T00:38:25.274Z,0.00
2018-09-18T00:39:25.272Z,0.00
2018-09-18T00:40:25.245Z,0.00
2018-09-18T00:41:25.218Z,0.00
2018-09-18T00:42:25.204Z,0.00
2018-09-18T00:43:25.188Z,0.00
2018-09-18T00:44:25.173Z,0.00
2018-09-18T00:45:25.150Z,0.00
2018-09-18T00:46:25.125Z,0.00
2018-09-18T00:47:25.108Z,0.00
2018-09-18T00:48:25.095Z,0.00
2018-09-18T00:49:25.076Z,0.00
2018-09-18T00:50:25.060Z,0.00
2018-09-18T00:51:25.034Z,0.00
2018-09-18T00:52:25.019Z,0.00
2018-09-18T00:53:24.997Z,0.00
2018-09-18T00:54:24.996Z,0.00
2018-09-18T00:55:24.968Z,0.00
2018-09-18T00:56:24.938Z,0.00
2018-09-18T00:57:24.919Z,0.00
2018-09-18T00:58:24.900Z,0.00
2018-09-18T00:59:24.904Z,0.00
2018-09-18T01:00:24.865Z,0.00
2018-09-18T01:01:24.856Z,0.00
2018-09-18T01:02:24.824Z,0.00
2018-09-18T01:03:24.804Z,0.00
2018-09-18T01:04:24.785Z,0.00
2018-09-18T01:05:24.776Z,0.00
2018-09-18T01:06:24.756Z,0.00
2018-09-18T01:07:24.728Z,0.00
2018-09-18T01:08:24.717Z,0.00
2018-09-18T01:09:24.699Z,0.00
2018-09-18T01:10:24.680Z,0.00
2018-09-18T01:11:24.658Z,0.00
2018-09-18T01:12:24.639Z,0.00
2018-09-18T01:13:24.617Z,0.00
2018-09-18T01:14:24.598Z,0.00
2018-09-18T01:15:24.581Z,0.00
2018-09-18T01:16:24.572Z,0.00
2018-09-18T01:17:24.911Z,0.00
2018-09-18T01:18:24.531Z,0.00
2018-09-18T01:19:24.511Z,0.00
2018-09-18T01:20:24.492Z,0.00
2018-09-18T01:21:24.467Z,0.00
2018-09-18T01:22:24.448Z,0.00
2018-09-18T01:23:24.451Z,0.00
2018-09-18T01:24:24.425Z,0.00
2018-09-18T01:25:24.527Z,0.00
2018-09-18T01:26:24.412Z,0.00
2018-09-18T01:27:24.362Z,0.00
2018-09-18T01:28:24.339Z,0.00
2018-09-18T01:29:24.323Z,0.00
2018-09-18T01:30:24.304Z,0.00
2018-09-18T01:31:24.278Z,0.00
2018-09-18T01:32:24.258Z,0.00
2018-09-18T01:33:24.252Z,0.00
2018-09-18T01:34:24.233Z,0.00
2018-09-18T01:35:24.201Z,0.00
2018-09-18T01:36:24.181Z,0.00
2018-09-18T01:37:24.165Z,0.00
2018-09-18T01:38:24.153Z,0.00
2018-09-18T01:39:24.138Z,0.00
2018-09-18T01:40:24.111Z,0.00
2018-09-18T01:41:24.108Z,0.00
2018-09-18T01:42:24.068Z,0.00
2018-09-18T01:43:24.056Z,0.00
2018-09-18T01:44:24.036Z,0.00
2018-09-18T01:45:24.010Z,0.00
2018-09-18T01:46:23.994Z,0.00
2018-09-18T01:47:23.988Z,0.00
2018-09-18T01:48:23.955Z,0.00
2018-09-18T01:49:23.967Z,0.00
2018-09-18T01:50:24.331Z,0.00
2018-09-18T01:51:23.898Z,0.00
2018-09-18T01:52:23.886Z,0.00
2018-09-18T01:53:23.892Z,0.00
2018-09-18T01:54:23.845Z,0.00
2018-09-18T01:55:23.836Z,0.00
2018-09-18T01:56:23.801Z,0.00
2018-09-18T01:57:23.788Z,0.00
2018-09-18T01:58:23.786Z,0.00
2018-09-18T01:59:23.744Z,0.00
2018-09-18T02:00:23.724Z,0.00
2018-09-18T02:01:23.715Z,0.00
2018-09-18T02:02:23.702Z,0.00
2018-09-18T02:03:23.673Z,0.00
2018-09-18T02:04:23.650Z,0.00
2018-09-18T02:05:23.650Z,0.00
2018-09-18T02:06:23.612Z,0.00
2018-09-18T02:07:23.606Z,0.00
2018-09-18T02:08:23.573Z,0.00
2018-09-18T02:09:23.558Z,0.00
2018-09-18T02:10:23.535Z,0.00
2018-09-18T02:11:23.513Z,0.00
2018-09-18T02:12:23.509Z,0.00
2018-09-18T02:13:23.471Z,0.00
2018-09-18T02:14:23.456Z,0.00
2018-09-18T02:15:23.442Z,0.00
2018-09-18T02:16:23.414Z,0.00
2018-09-18T02:17:23.395Z,0.00
2018-09-18T02:18:23.379Z,0.00
2018-09-18T02:19:23.356Z,0.00
2018-09-18T02:20:23.337Z,0.00
2018-09-18T02:21:23.321Z,0.00
2018-09-18T02:22:23.300Z,0.00
2018-09-18T02:23:23.289Z,0.00
2018-09-18T02:24:23.259Z,0.00
2018-09-18T02:25:23.242Z,0.00
2018-09-18T02:26:23.247Z,0.00
2018-09-18T02:27:23.212Z,0.00
2018-09-18T02:28:23.196Z,0.00
2018-09-18T02:29:23.164Z,0.00
2018-09-18T02:30:23.142Z,0.00
2018-09-18T02:31:23.121Z,0.00
2018-09-18T02:32:23.100Z,0.00
2018-09-18T02:33:23.100Z,0.00
2018-09-18T02:34:23.057Z,0.00
2018-09-18T02:35:23.050Z,0.00
2018-09-18T02:36:23.022Z,0.00
2018-09-18T02:37:23.061Z,0.00
2018-09-18T02:38:22.983Z,0.00
2018-09-18T02:39:22.967Z,0.00
2018-09-18T02:40:22.944Z,0.00
2018-09-18T02:41:22.926Z,0.00
2018-09-18T02:42:22.913Z,0.00
2018-09-18T02:43:22.881Z,0.00
2018-09-18T02:44:22.872Z,0.00
2018-09-18T02:45:22.846Z,0.00
2018-09-18T02:46:22.827Z,0.00
2018-09-18T02:47:22.805Z,0.00
2018-09-18T02:48:22.795Z,0.00
2018-09-18T02:49:22.770Z,0.00
2018-09-18T02:50:22.751Z,0.00
2018-09-18T02:51:22.730Z,0.00
2018-09-18T02:52:22.708Z,0.00
2018-09-18T02:53:22.702Z,0.00
2018-09-18T02:54:22.696Z,0.00
2018-09-18T02:55:22.648Z,0.00
2018-09-18T02:56:22.635Z,0.00
2018-09-18T02:57:22.606Z,0.00
2018-09-18T02:58:22.583Z,0.00
2018-09-18T02:59:22.564Z,0.00
2018-09-18T03:00:22.545Z,0.00
2018-09-18T03:01:22.529Z,0.00
2018-09-18T03:02:22.510Z,0.00
2018-09-18T03:03:22.488Z,0.00
2018-09-18T03:04:22.463Z,0.00
2018-09-18T03:05:23.151Z,0.00
2018-09-18T03:06:22.421Z,0.00
2018-09-18T03:07:22.402Z,0.00
2018-09-18T03:08:22.384Z,0.00
2018-09-18T03:09:22.370Z,0.00
2018-09-18T03:10:22.354Z,0.00
2018-09-18T03:11:22.403Z,0.00
2018-09-18T03:12:22.310Z,0.00
2018-09-18T03:13:22.284Z,0.00
2018-09-18T03:14:22.263Z,0.00
2018-09-18T03:15:22.240Z,0.00
2018-09-18T03:16:22.241Z,0.00
2018-09-18T03:17:22.207Z,0.00
2018-09-18T03:18:22.197Z,0.00
2018-09-18T03:19:22.179Z,0.00
2018-09-18T03:20:22.151Z,0.00
2018-09-18T03:21:22.126Z,0.00
2018-09-18T03:22:22.109Z,0.00
2018-09-18T03:23:22.088Z,0.00
2018-09-18T03:24:22.084Z,0.00
2018-09-18T03:25:22.053Z,0.00
2018-09-18T03:26:22.040Z,0.00
2018-09-18T03:27:22.057Z,0.00
2018-09-18T03:28:22.001Z,0.00
2018-09-18T03:29:21.960Z,0.00
2018-09-18T03:30:21.947Z,0.00
2018-09-18T03:31:21.927Z,0.00
2018-09-18T03:32:21.905Z,0.00
2018-09-18T03:33:21.905Z,0.00
2018-09-18T03:34:21.859Z,0.00
2018-09-18T03:35:21.841Z,0.00
2018-09-18T03:36:21.824Z,0.00
2018-09-18T03:37:21.823Z,0.00
2018-09-18T03:38:21.786Z,0.00
2018-09-18T03:39:21.767Z,0.00
2018-09-18T03:40:21.747Z,0.00
2018-09-18T03:41:21.729Z,0.00
2018-09-18T03:42:21.700Z,0.00
2018-09-18T03:43:21.690Z,0.00
2018-09-18T03:44:21.660Z,0.00
2018-09-18T03:45:21.640Z,0.00
2018-09-18T03:46:21.627Z,0.00
2018-09-18T03:47:21.599Z,0.00
2018-09-18T03:48:21.581Z,0.00
2018-09-18T03:49:21.566Z,0.00
2018-09-18T03:50:21.545Z,0.00
2018-09-18T03:51:21.522Z,0.00
2018-09-18T03:52:21.503Z,0.00
2018-09-18T03:53:21.505Z,0.00
2018-09-18T03:54:21.463Z,0.00
2018-09-18T03:55:21.446Z,0.00
2018-09-18T03:56:21.422Z,0.00
2018-09-18T03:57:21.400Z,0.00
2018-09-18T03:58:21.393Z,0.00
2018-09-18T03:59:21.370Z,0.00
2018-09-18T04:00:21.368Z,0.00
2018-09-18T04:01:21.326Z,0.00
2018-09-18T04:02:21.305Z,0.00
2018-09-18T04:03:21.284Z,0.00
2018-09-18T04:04:21.277Z,0.00
2018-09-18T04:05:21.243Z,0.00
2018-09-18T04:06:21.216Z,0.00
2018-09-18T04:07:21.213Z,0.00
2018-09-18T04:08:21.181Z,0.00
2018-09-18T04:09:21.175Z,0.00
2018-09-18T04:10:21.146Z,0.00
2018-09-18T04:11:21.133Z,0.00
2018-09-18T04:12:21.106Z,0.00
2018-09-18T04:13:21.091Z,0.00
2018-09-18T04:14:21.059Z,0.00
2018-09-18T04:15:21.040Z,0.00
2018-09-18T04:16:21.022Z,0.00
2018-09-18T04:17:21.079Z,0.00
2018-09-18T04:18:20.985Z,0.00
2018-09-18T04:19:20.950Z,0.00
2018-09-18T04:20:20.941Z,0.00
2018-09-18T04:21:20.916Z,0.00
2018-09-18T04:22:20.896Z,0.00
2018-09-18T04:23:20.893Z,0.00
2018-09-18T04:24:20.854Z,0.00
2018-09-18T04:25:20.839Z,0.00
2018-09-18T04:26:20.826Z,0.00
2018-09-18T04:27:20.807Z,0.00
2018-09-18T04:28:20.790Z,0.00
2018-09-18T04:29:20.768Z,0.00
2018-09-18T04:30:20.736Z,0.00
2018-09-18T04:31:20.720Z,0.00
2018-09-18T04:32:20.701Z,0.00
2018-09-18T04:33:20.686Z,0.00
2018-09-18T04:34:20.661Z,0.00
2018-09-18T04:35:20.637Z,0.00
2018-09-18T04:36:20.619Z,4.00
2018-09-18T04:37:20.594Z,4.00
2018-09-18T04:38:20.581Z,4.00
2018-09-18T04:39:21.178Z,4.00
2018-09-18T04:40:20.542Z,4.00
2018-09-18T04:41:20.526Z,8.00
2018-09-18T04:42:20.512Z,4.00
2018-09-18T04:43:20.482Z,8.00
2018-09-18T04:44:20.473Z,8.00
2018-09-18T04:45:20.441Z,12.00
2018-09-18T04:46:20.413Z,16.00
2018-09-18T04:47:20.402Z,20.00
2018-09-18T04:48:20.382Z,20.00
2018-09-18T04:49:20.358Z,24.00
2018-09-18T04:50:20.342Z,28.00
2018-09-18T04:51:20.319Z,36.00
2018-09-18T04:52:20.317Z,40.00
2018-09-18T04:53:20.287Z,52.00
2018-09-18T04:54:20.262Z,56.00
2018-09-18T04:55:20.252Z,64.00
2018-09-18T04:56:20.220Z,80.00
2018-09-18T04:57:20.188Z,92.00
2018-09-18T04:58:20.182Z,104.00
2018-09-18T04:59:20.167Z,120.00
2018-09-18T05:00:20.137Z,140.00
2018-09-18T05:01:20.114Z,156.00
2018-09-18T05:02:20.093Z,176.00
2018-09-18T05:03:20.115Z,196.00
2018-09-18T05:04:20.112Z,220.00
2018-09-18T05:05:20.109Z,244.00
2018-09-18T05:06:20.049Z,268.00
2018-09-18T05:07:19.994Z,292.00
2018-09-18T05:08:19.974Z,320.00
2018-09-18T05:09:19.981Z,352.00
2018-09-18T05:10:19.956Z,384.00
2018-09-18T05:11:19.962Z,412.00
2018-09-18T05:12:19.933Z,444.00
2018-09-18T05:13:19.874Z,480.00
2018-09-18T05:14:19.854Z,512.00
2018-09-18T05:15:19.829Z,544.00
2018-09-18T05:16:19.812Z,584.00
2018-09-18T05:17:19.798Z,616.00
2018-09-18T05:18:19.785Z,652.00
2018-09-18T05:19:19.775Z,688.00
2018-09-18T05:20:19.726Z,720.00
2018-09-18T05:21:19.708Z,760.00
2018-09-18T05:22:19.691Z,796.00
2018-09-18T05:23:19.666Z,828.00
2018-09-18T05:24:19.649Z,868.00
2018-09-18T05:25:19.630Z,900.00
2018-09-18T05:26:19.612Z,936.00
2018-09-18T05:27:19.596Z,972.00
2018-09-18T05:28:19.570Z,1004.00
2018-09-18T05:29:19.551Z,1040.00
2018-09-18T05:30:19.529Z,1072.00
2018-09-18T05:31:19.509Z,1108.00
2018-09-18T05:32:19.490Z,1144.00
2018-09-18T05:33:19.473Z,1176.00
2018-09-18T05:34:19.447Z,1212.00
2018-09-18T05:35:19.444Z,1248.00
2018-09-18T05:36:19.416Z,1280.00
2018-09-18T05:37:19.399Z,1316.00
2018-09-18T05:38:19.374Z,1348.00
2018-09-18T05:39:19.348Z,1376.00
2018-09-18T05:40:19.329Z,1412.00
2018-09-18T05:41:19.332Z,1444.00
2018-09-18T05:42:19.290Z,1476.00
2018-09-18T05:43:19.269Z,1504.00
2018-09-18T05:44:19.257Z,1536.00
2018-09-18T05:45:19.248Z,1568.00
2018-09-18T05:46:19.223Z,1596.00
2018-09-18T05:47:19.196Z,1624.00
2018-09-18T05:48:19.203Z,1656.00
2018-09-18T05:49:19.187Z,1684.00
2018-09-18T05:50:19.126Z,1712.00
2018-09-18T05:51:19.129Z,1744.00
2018-09-18T05:52:19.087Z,1776.00
2018-09-18T05:53:19.081Z,1808.00
2018-09-18T05:54:19.054Z,1836.00
2018-09-18T05:55:19.033Z,1864.00
2018-09-18T05:56:19.010Z,1896.00
2018-09-18T05:57:18.991Z,1916.00
2018-09-18T05:58:18.968Z,1940.00
2018-09-18T05:59:18.971Z,1964.00
2018-09-18T06:00:18.934Z,1988.00
2018-09-18T06:01:18.920Z,2016.00
2018-09-18T06:02:18.932Z,2044.00
2018-09-18T06:03:18.875Z,2080.00
2018-09-18T06:04:18.864Z,2108.00
2018-09-18T06:05:18.839Z,2136.00
2018-09-18T06:06:18.824Z,2176.00
2018-09-18T06:07:18.813Z,2268.00
2018-09-18T06:08:18.775Z,2272.00
2018-09-18T06:09:18.753Z,2240.00
2018-09-18T06:10:18.736Z,2260.00
2018-09-18T06:11:18.711Z,2284.00
2018-09-18T06:12:18.704Z,2308.00
2018-09-18T06:13:18.679Z,2332.00
2018-09-18T06:14:18.687Z,2356.00
2018-09-18T06:15:18.639Z,2384.00
2018-09-18T06:16:18.628Z,2404.00
2018-09-18T06:17:18.602Z,2432.00
2018-09-18T06:18:18.602Z,2456.00
2018-09-18T06:19:18.650Z,2480.00
2018-09-18T06:20:18.548Z,2496.00
2018-09-18T06:21:18.525Z,2520.00
2018-09-18T06:22:18.504Z,2536.00
2018-09-18T06:23:18.484Z,2560.00
2018-09-18T06:24:18.471Z,2580.00
2018-09-18T06:25:18.452Z,2604.00
2018-09-18T06:26:18.505Z,2624.00
2018-09-18T06:27:18.409Z,2648.00
2018-09-18T06:28:18.391Z,2676.00
2018-09-18T06:29:18.409Z,2704.00
2018-09-18T06:30:18.352Z,2728.00
2018-09-18T06:31:18.334Z,2744.00
2018-09-18T06:32:18.326Z,2764.00
2018-09-18T06:33:18.304Z,2780.00
2018-09-18T06:34:18.281Z,2796.00
2018-09-18T06:35:18.258Z,2812.00
2018-09-18T06:36:18.235Z,2832.00
2018-09-18T06:37:18.229Z,2848.00
2018-09-18T06:38:18.200Z,2864.00
2018-09-18T06:39:18.190Z,2872.00
2018-09-18T06:40:18.168Z,2888.00
2018-09-18T06:41:18.155Z,2896.00
2018-09-18T06:42:18.201Z,2912.00
2018-09-18T06:43:18.114Z,2920.00
2018-09-18T06:44:18.092Z,2932.00
2018-09-18T06:45:18.092Z,2944.00
2018-09-18T06:46:18.066Z,2964.00
2018-09-18T06:47:18.038Z,2980.00
2018-09-18T06:48:18.019Z,3004.00
2018-09-18T06:49:18.000Z,3028.00
2018-09-18T06:50:18.028Z,3052.00
2018-09-18T06:51:17.968Z,3080.00
2018-09-18T06:52:17.948Z,3112.00
2018-09-18T06:53:17.939Z,3136.00
2018-09-18T06:54:17.919Z,3152.00
2018-09-18T06:55:17.897Z,3172.00
2018-09-18T06:56:17.878Z,3188.00
2018-09-18T06:57:17.865Z,3200.00
2018-09-18T06:58:17.840Z,3216.00
2018-09-18T06:59:17.846Z,3232.00
2018-09-18T07:00:17.844Z,3252.00
2018-09-18T07:01:17.792Z,3276.00
2018-09-18T07:02:17.772Z,3304.00
2018-09-18T07:03:17.757Z,3324.00
2018-09-18T07:04:17.733Z,3352.00
2018-09-18T07:05:17.721Z,3372.00
2018-09-18T07:06:17.710Z,3396.00
2018-09-18T07:07:17.696Z,3420.00
2018-09-18T07:08:17.667Z,3440.00
2018-09-18T07:09:17.648Z,3468.00
2018-09-18T07:10:17.635Z,3492.00
2018-09-18T07:11:17.632Z,3524.00
2018-09-18T07:12:17.600Z,3536.00
2018-09-18T07:13:17.584Z,3552.00
2018-09-18T07:14:17.576Z,3568.00
2018-09-18T07:15:17.581Z,3580.00
2018-09-18T07:16:17.539Z,3600.00
2018-09-18T07:17:17.520Z,3628.00
2018-09-18T07:18:17.501Z,3660.00
2018-09-18T07:19:17.514Z,3692.00
2018-09-18T07:20:17.471Z,3728.00
2018-09-18T07:21:17.448Z,3760.00
2018-09-18T07:22:17.435Z,3884.00
2018-09-18T07:23:17.415Z,3976.00
2018-09-18T07:24:17.406Z,3968.00
2018-09-18T07:25:17.393Z,3944.00
2018-09-18T07:26:17.379Z,3948.00
2018-09-18T07:27:17.361Z,3996.00
2018-09-18T07:28:17.374Z,4124.00
2018-09-18T07:29:17.379Z,4272.00
2018-09-18T07:30:17.307Z,4456.00
2018-09-18T07:31:17.323Z,4688.00
2018-09-18T07:32:17.288Z,4820.00
2018-09-18T07:33:17.269Z,4836.00
2018-09-18T07:34:17.251Z,4852.00
2018-09-18T07:35:17.250Z,4692.00
2018-09-18T07:36:17.241Z,4676.00
2018-09-18T07:37:17.211Z,4904.00
2018-09-18T07:38:17.196Z,5028.00
2018-09-18T07:39:17.173Z,5076.00
2018-09-18T07:40:17.176Z,5124.00
2018-09-18T07:41:17.148Z,5204.00
2018-09-18T07:42:17.139Z,5268.00
2018-09-18T07:43:17.122Z,5300.00
2018-09-18T07:44:17.116Z,5368.00
2018-09-18T07:45:17.107Z,5492.00
2018-09-18T07:46:17.111Z,5636.00
2018-09-18T07:47:17.104Z,5804.00
2018-09-18T07:48:17.065Z,5900.00
2018-09-18T07:49:17.045Z,5904.00
2018-09-18T07:50:17.731Z,5948.00
2018-09-18T07:51:17.052Z,6032.00
2018-09-18T07:52:17.035Z,6140.00
2018-09-18T07:53:17.003Z,6292.00
2018-09-18T07:54:16.994Z,6472.00
2018-09-18T07:55:16.978Z,6628.00
2018-09-18T07:56:16.962Z,6832.00
2018-09-18T07:57:16.958Z,7048.00
2018-09-18T07:58:16.959Z,7272.00
2018-09-18T07:59:16.940Z,7440.00
2018-09-18T08:00:16.940Z,7476.00
2018-09-18T08:01:16.920Z,7448.00
2018-09-18T08:02:16.907Z,7460.00
2018-09-18T08:03:17.004Z,7516.00
2018-09-18T08:04:16.886Z,7612.00
2018-09-18T08:05:16.874Z,7768.00
2018-09-18T08:06:16.871Z,7932.00
2018-09-18T08:07:16.863Z,8132.00
2018-09-18T08:08:16.849Z,8408.00
2018-09-18T08:09:16.852Z,8536.00
2018-09-18T08:10:16.839Z,8500.00
2018-09-18T08:11:16.820Z,8564.00
2018-09-18T08:12:16.813Z,8708.00
2018-09-18T08:13:16.813Z,8848.00
2018-09-18T08:14:16.804Z,9000.00
2018-09-18T08:15:16.795Z,9152.00
2018-09-18T08:16:16.787Z,9300.00
2018-09-18T08:17:16.797Z,9488.00
2018-09-18T08:18:16.768Z,9776.00
2018-09-18T08:19:16.767Z,10308.00
2018-09-18T08:20:16.752Z,10656.00
2018-09-18T08:21:16.740Z,10844.00
2018-09-18T08:22:16.734Z,10988.00
2018-09-18T08:23:16.765Z,11216.00
2018-09-18T08:24:16.724Z,11404.00
2018-09-18T08:25:16.825Z,11472.00
2018-09-18T08:26:16.702Z,11556.00
2018-09-18T08:27:16.698Z,11776.00
2018-09-18T08:28:16.692Z,11960.00
2018-09-18T08:29:16.691Z,12244.00
2018-09-18T08:30:16.675Z,12512.00
2018-09-18T08:31:16.678Z,12644.00
2018-09-18T08:32:16.662Z,12796.00
2018-09-18T08:33:16.658Z,12936.00
2018-09-18T08:34:16.659Z,13128.00
2018-09-18T08:35:16.653Z,13488.00
2018-09-18T08:36:16.637Z,14112.00
2018-09-18T08:37:16.634Z,14368.00
2018-09-18T08:38:16.624Z,14628.00
2018-09-18T08:39:16.617Z,15220.00
2018-09-18T08:40:16.620Z,15832.00
2018-09-18T08:41:16.635Z,17088.00
2018-09-18T08:42:16.595Z,18208.00
2018-09-18T08:43:16.594Z,26496.00
2018-09-18T08:44:16.586Z,54080.00
2018-09-18T08:45:16.581Z,66432.00
2018-09-18T08:46:16.652Z,63488.00
2018-09-18T08:47:16.591Z,63392.00
2018-09-18T08:48:16.577Z,64416.00
2018-09-18T08:49:16.558Z,60800.00
2018-09-18T08:50:16.543Z,55072.00
2018-09-18T08:51:16.569Z,55040.00
2018-09-18T08:52:16.546Z,60384.00
2018-09-18T08:53:16.541Z,61600.00
2018-09-18T08:54:16.524Z,61056.00
2018-09-18T08:55:16.516Z,60896.00
2018-09-18T08:56:16.530Z,65856.00
2018-09-18T08:57:16.536Z,70496.00
2018-09-18T08:58:16.512Z,71424.00
2018-09-18T08:59:16.486Z,71328.00
2018-09-18T09:00:16.484Z,68384.00
2018-09-18T09:01:16.475Z,67936.00
2018-09-18T09:02:16.473Z,72608.00
2018-09-18T09:03:16.474Z,75552.00
2018-09-18T09:04:16.487Z,76032.00
2018-09-18T09:05:16.456Z,76864.00
2018-09-18T09:06:16.443Z,77760.00
2018-09-18T09:07:16.468Z,77376.00
2018-09-18T09:08:16.608Z,75008.00
2018-09-18T09:09:16.511Z,72352.00
2018-09-18T09:10:16.472Z,71680.00
2018-09-18T09:11:16.437Z,73312.00
2018-09-18T09:12:16.405Z,74976.00
2018-09-18T09:13:16.402Z,75616.00
2018-09-18T09:14:16.527Z,74688.00
2018-09-18T09:15:16.407Z,72768.00
2018-09-18T09:16:16.412Z,68928.00
2018-09-18T09:17:16.383Z,61184.00
2018-09-18T09:18:16.441Z,52256.00
2018-09-18T09:19:16.376Z,52480.00
2018-09-18T09:20:16.373Z,61984.00
2018-09-18T09:21:16.439Z,71488.00
2018-09-18T09:22:16.420Z,74944.00
2018-09-18T09:23:16.352Z,76000.00
2018-09-18T09:24:16.367Z,79616.00
2018-09-18T09:25:16.360Z,81568.00
2018-09-18T09:26:16.426Z,80480.00
2018-09-18T09:27:16.358Z,78592.00
2018-09-18T09:28:16.326Z,76768.00
2018-09-18T09:29:16.311Z,79040.00
2018-09-18T09:30:16.303Z,82048.00
2018-09-18T09:31:16.315Z,81248.00
2018-09-18T09:32:16.473Z,82976.00
2018-09-18T09:33:16.286Z,84032.00
2018-09-18T09:34:16.287Z,78944.00
2018-09-18T09:35:16.280Z,74464.00
2018-09-18T09:36:16.300Z,76672.00
2018-09-18T09:37:16.340Z,79744.00
2018-09-18T09:38:16.272Z,79008.00
2018-09-18T09:39:16.255Z,79072.00
2018-09-18T09:40:16.248Z,79136.00
2018-09-18T09:41:16.245Z,78432.00
2018-09-18T09:42:16.257Z,78144.00
2018-09-18T09:43:16.287Z,78016.00
2018-09-18T09:44:16.225Z,77184.00
2018-09-18T09:45:16.229Z,78784.00
2018-09-18T09:46:16.224Z,79136.00
2018-09-18T09:47:16.218Z,79392.00
2018-09-18T09:48:16.213Z,80768.00
2018-09-18T09:49:16.207Z,82336.00
2018-09-18T09:50:16.197Z,83200.00
2018-09-18T09:51:16.269Z,82016.00
2018-09-18T09:52:16.184Z,80864.00
2018-09-18T09:53:16.184Z,79040.00
2018-09-18T09:54:16.181Z,77760.00
2018-09-18T09:55:16.165Z,79488.00
2018-09-18T09:56:16.172Z,81472.00
2018-09-18T09:57:16.162Z,79008.00
2018-09-18T09:58:16.162Z,77920.00
2018-09-18T09:59:16.155Z,81280.00
2018-09-18T10:00:16.152Z,87104.00
2018-09-18T10:01:16.151Z,90688.00
2018-09-18T10:02:16.140Z,91296.00
2018-09-18T10:03:16.133Z,89408.00
2018-09-18T10:04:16.146Z,88896.00
2018-09-18T10:05:16.124Z,88832.00
2018-09-18T10:06:16.127Z,86752.00
2018-09-18T10:07:16.114Z,85120.00
2018-09-18T10:08:16.108Z,84064.00
2018-09-18T10:09:16.124Z,83456.00
2018-09-18T10:10:16.108Z,84064.00
2018-09-18T10:11:16.100Z,85888.00
2018-09-18T10:12:16.095Z,85024.00
2018-09-18T10:13:16.089Z,82880.00
2018-09-18T10:14:16.090Z,81632.00
2018-09-18T10:15:16.107Z,83168.00
2018-09-18T10:16:16.082Z,81504.00
2018-09-18T10:17:16.078Z,80064.00
2018-09-18T10:18:16.082Z,81888.00
2018-09-18T10:19:16.083Z,84992.00
2018-09-18T10:20:16.066Z,86272.00
2018-09-18T10:21:16.060Z,87488.00
2018-09-18T10:22:16.050Z,85664.00
2018-09-18T10:23:16.054Z,84064.00
2018-09-18T10:24:16.043Z,87552.00
2018-09-18T10:25:16.057Z,89984.00
2018-09-18T10:26:16.178Z,89824.00
2018-09-18T10:27:16.047Z,87232.00
2018-09-18T10:28:16.037Z,84224.00
2018-09-18T10:29:16.035Z,84032.00
2018-09-18T10:30:16.031Z,86240.00
2018-09-18T10:31:16.042Z,90752.00
2018-09-18T10:32:16.026Z,92096.00
2018-09-18T10:33:16.018Z,94080.00
2018-09-18T10:34:16.053Z,97344.00
2018-09-18T10:35:16.015Z,99584.00
2018-09-18T10:36:16.005Z,96640.00
2018-09-18T10:37:16.024Z,92800.00
2018-09-18T10:38:16.030Z,90784.00
2018-09-18T10:39:16.025Z,90656.00
2018-09-18T10:40:16.022Z,89408.00
2018-09-18T10:41:16.136Z,88736.00
2018-09-18T10:42:16.024Z,89216.00
2018-09-18T10:43:16.006Z,90144.00
2018-09-18T10:44:15.999Z,91072.00
2018-09-18T10:45:15.980Z,89376.00
2018-09-18T10:46:15.980Z,87296.00
2018-09-18T10:47:15.976Z,84960.00
2018-09-18T10:48:15.985Z,82656.00
2018-09-18T10:49:15.983Z,82432.00
2018-09-18T10:50:15.973Z,83552.00
2018-09-18T10:51:15.967Z,83392.00
2018-09-18T10:52:15.964Z,84288.00
2018-09-18T10:53:15.964Z,85376.00
2018-09-18T10:54:15.977Z,83328.00
2018-09-18T10:55:16.016Z,79488.00
2018-09-18T10:56:15.964Z,74784.00
2018-09-18T10:57:15.954Z,74880.00
2018-09-18T10:58:15.954Z,76608.00
2018-09-18T10:59:15.951Z,79904.00
2018-09-18T11:00:15.981Z,82560.00
2018-09-18T11:01:15.974Z,82688.00
2018-09-18T11:02:16.142Z,80096.00
2018-09-18T11:03:15.963Z,70720.00
2018-09-18T11:04:15.954Z,67296.00
2018-09-18T11:05:15.954Z,76032.00
2018-09-18T11:06:15.956Z,85760.00
2018-09-18T11:07:16.011Z,92864.00
2018-09-18T11:08:15.989Z,91968.00
2018-09-18T11:09:16.060Z,85504.00
2018-09-18T11:10:15.958Z,72128.00
2018-09-18T11:11:16.038Z,56064.00
2018-09-18T11:12:16.008Z,42400.00
2018-09-18T11:13:15.945Z,34368.00
2018-09-18T11:14:16.026Z,31360.00
2018-09-18T11:15:15.964Z,29536.00
2018-09-18T11:16:15.985Z,27488.00
2018-09-18T11:17:15.935Z,26816.00
2018-09-18T11:18:16.006Z,26592.00
2018-09-18T11:19:15.971Z,25760.00
2018-09-18T11:20:15.970Z,25376.00
2018-09-18T11:21:16.035Z,24960.00
2018-09-18T11:22:15.984Z,24384.00
2018-09-18T11:23:15.959Z,23968.00
2018-09-18T11:24:16.056Z,23776.00
2018-09-18T11:25:15.959Z,23904.00
2018-09-18T11:26:15.947Z,23936.00
2018-09-18T11:27:15.942Z,23488.00
2018-09-18T11:28:15.932Z,23328.00
2018-09-18T11:29:15.986Z,23200.00
2018-09-18T11:30:15.954Z,23104.00
2018-09-18T11:31:16.015Z,23104.00
2018-09-18T11:32:15.953Z,23008.00
2018-09-18T11:33:15.955Z,22816.00
2018-09-18T11:34:15.955Z,22720.00
2018-09-18T11:35:16.006Z,22592.00
2018-09-18T11:36:16.060Z,22496.00
2018-09-18T11:37:16.044Z,22592.00
2018-09-18T11:38:16.009Z,22752.00
2018-09-18T11:39:15.939Z,22816.00
2018-09-18T11:40:16.134Z,23008.00
2018-09-18T11:41:15.935Z,23104.00
2018-09-18T11:42:15.932Z,23104.00
2018-09-18T11:43:15.938Z,22912.00
2018-09-18T11:44:15.935Z,22624.00
2018-09-18T11:45:15.942Z,22400.00
2018-09-18T11:46:15.939Z,22336.00
2018-09-18T11:47:15.939Z,22112.00
2018-09-18T11:48:15.949Z,22016.00
2018-09-18T11:49:15.961Z,21824.00
2018-09-18T11:50:15.954Z,21760.00
2018-09-18T11:51:15.968Z,21664.00
2018-09-18T11:52:15.965Z,21472.00
2018-09-18T11:53:15.938Z,21248.00
2018-09-18T11:54:15.958Z,21280.00
2018-09-18T11:55:15.955Z,21152.00
2018-09-18T11:56:15.948Z,20928.00
2018-09-18T11:57:16.028Z,20832.00
2018-09-18T11:58:15.991Z,20512.00
2018-09-18T11:59:15.955Z,20608.00
2018-09-18T12:00:15.955Z,20480.00
2018-09-18T12:01:15.958Z,20256.00
2018-09-18T12:02:15.955Z,20064.00
2018-09-18T12:03:16.063Z,20000.00
2018-09-18T12:04:15.977Z,19904.00
2018-09-18T12:05:16.082Z,19744.00
2018-09-18T12:06:15.964Z,19520.00
2018-09-18T12:07:15.968Z,19232.00
2018-09-18T12:08:15.971Z,19008.00
2018-09-18T12:09:16.028Z,18912.00
2018-09-18T12:10:16.030Z,18752.00
2018-09-18T12:11:16.013Z,18624.00
2018-09-18T12:12:15.974Z,18432.00
2018-09-18T12:13:15.968Z,18304.00
2018-09-18T12:14:15.972Z,18112.00
2018-09-18T12:15:15.974Z,18016.00
2018-09-18T12:16:15.984Z,17920.00
2018-09-18T12:17:15.984Z,17856.00
2018-09-18T12:18:15.998Z,17696.00
2018-09-18T12:19:15.980Z,17568.00
2018-09-18T12:20:15.981Z,17396.00
2018-09-18T12:21:15.980Z,17304.00
2018-09-18T12:22:16.069Z,17308.00
2018-09-18T12:23:15.989Z,17240.00
2018-09-18T12:24:15.984Z,17244.00
2018-09-18T12:25:15.990Z,17232.00